createdAt,value
2023-05-02T00:01:20.119Z,100204.17
2023-05-02T00:06:23.160Z,100203.48
2023-05-02T00:11:26.426Z,100200.42
2023-05-02T00:16:29.689Z,100198.42
2023-05-02T00:21:33.162Z,100190.65
2023-05-02T00:26:36.371Z,100183.86
2023-05-02T00:31:43.438Z,100178.02
2023-05-02T00:36:46.765Z,100173.52
2023-05-02T00:41:49.667Z,100166.09
2023-05-02T00:46:53.496Z,100157.20
2023-05-02T00:51:56.903Z,100150.14
2023-05-02T00:57:00.150Z,100142.38
2023-05-02T01:02:08.570Z,100136.80
2023-05-02T01:07:37.963Z,100128.30
2023-05-02T01:12:57.860Z,100122.66
2023-05-02T01:18:02.586Z,100118.95
2023-05-02T01:23:09.607Z,100113.79
2023-05-02T01:28:24.172Z,100111.30
2023-05-02T01:33:28.715Z,100107.08
2023-05-02T01:38:33.363Z,100101.30
2023-05-02T01:43:38.412Z,100100.60
2023-05-02T01:48:44.895Z,100093.80
2023-05-02T01:53:49.843Z,100083.44
2023-05-02T01:58:54.384Z,100076.34
2023-05-02T02:03:58.902Z,100068.86
2023-05-02T02:09:03.987Z,100068.50
2023-05-02T02:14:12.715Z,100064.73
2023-05-02T02:19:16.225Z,100061.90
2023-05-02T02:24:21.376Z,100055.78
2023-05-02T02:29:24.486Z,100057.16
2023-05-02T02:34:27.702Z,100064.56
2023-05-02T02:39:49.681Z,100063.80
2023-05-02T02:44:59.682Z,100059.42
2023-05-02T02:50:21.658Z,100058.69
2023-05-02T02:55:31.304Z,100056.72
2023-05-02T03:00:35.343Z,100053.83
2023-05-02T03:05:38.857Z,100050.13
2023-05-02T03:10:41.966Z,100049.09
2023-05-02T03:15:57.094Z,100044.09
2023-05-02T03:21:01.275Z,100049.23
2023-05-02T03:26:04.385Z,100052.68
2023-05-02T03:31:07.474Z,100050.02
2023-05-02T03:36:14.292Z,100053.73
2023-05-02T03:41:17.499Z,100060.46
2023-05-02T03:46:20.514Z,100059.66
2023-05-02T03:51:23.603Z,100047.14
2023-05-02T03:56:26.707Z,100049.27
2023-05-02T04:01:29.919Z,100052.12
2023-05-02T04:06:33.381Z,100049.60
2023-05-02T04:11:36.536Z,100051.75
2023-05-02T04:16:39.679Z,100047.10
2023-05-02T04:21:43.058Z,100049.70
2023-05-02T04:26:48.936Z,100044.81
2023-05-02T04:31:52.338Z,100049.94
2023-05-02T04:36:55.493Z,100050.29
2023-05-02T04:41:58.655Z,100051.33
2023-05-02T04:47:01.863Z,100054.52
2023-05-02T04:52:05.169Z,100048.95
2023-05-02T04:57:10.217Z,100051.00
2023-05-02T05:02:13.503Z,100056.34
2023-05-02T05:07:16.635Z,100054.27
2023-05-02T05:12:20.361Z,100056.46
2023-05-02T05:17:23.510Z,100053.84
2023-05-02T05:22:26.669Z,100056.49
2023-05-02T05:27:29.777Z,100054.34
2023-05-02T05:32:36.066Z,100059.91
2023-05-02T05:37:39.976Z,100068.52
2023-05-02T05:42:43.133Z,100071.33
2023-05-02T05:47:46.627Z,100066.52
2023-05-02T05:52:49.711Z,100072.36
2023-05-02T05:57:53.019Z,100072.98
2023-05-02T06:02:56.452Z,100077.60
2023-05-02T06:08:00.147Z,100070.08
2023-05-02T06:13:03.360Z,100067.92
2023-05-02T06:18:06.759Z,100075.91
2023-05-02T06:23:10.721Z,100087.65
2023-05-02T06:28:14.845Z,100088.35
2023-05-02T06:33:18.452Z,100091.80
2023-05-02T06:38:22.681Z,100089.84
2023-05-02T06:43:26.301Z,100096.48
2023-05-02T06:48:29.763Z,100102.02
2023-05-02T06:53:33.384Z,100115.46
2023-05-02T06:58:36.539Z,100117.52
2023-05-02T07:03:40.450Z,100124.30
2023-05-02T07:08:44.992Z,100130.30
2023-05-02T07:13:48.935Z,100135.29
2023-05-02T07:18:53.521Z,100136.42
2023-05-02T07:23:58.315Z,100141.08
2023-05-02T07:29:03.324Z,100148.77
2023-05-02T07:34:07.696Z,100160.55
2023-05-02T07:39:11.104Z,100164.95
2023-05-02T07:44:14.109Z,100169.42
2023-05-02T07:49:17.115Z,100166.88
2023-05-02T07:54:20.844Z,100167.20
2023-05-02T07:59:24.156Z,100172.36
2023-05-02T08:04:27.863Z,100176.61
2023-05-02T08:09:31.381Z,100183.11
2023-05-02T08:14:35.106Z,100193.05
2023-05-02T08:19:38.407Z,100206.98
2023-05-02T08:24:41.413Z,100213.69
2023-05-02T08:29:44.618Z,100218.48
2023-05-02T08:34:47.629Z,100226.60
2023-05-02T08:39:50.738Z,100223.70
2023-05-02T08:44:53.730Z,100225.65
2023-05-02T08:49:57.162Z,100232.87
2023-05-02T08:55:02.306Z,100241.35
2023-05-02T09:00:09.822Z,100247.55
2023-05-02T09:05:19.519Z,100250.04
2023-05-02T09:10:25.348Z,100256.80
2023-05-02T09:15:28.439Z,100259.77
2023-05-02T09:20:40.460Z,100267.96
2023-05-02T09:25:43.453Z,100269.91
2023-05-02T09:30:48.467Z,100269.29
2023-05-02T09:35:56.062Z,100263.29
2023-05-02T09:40:59.530Z,100266.13
2023-05-02T09:46:04.489Z,100262.98
2023-05-02T09:51:17.006Z,100266.88
2023-05-02T09:56:20.016Z,100265.30
2023-05-02T10:01:23.169Z,100269.91
2023-05-02T10:06:28.489Z,100271.02
2023-05-02T10:11:32.924Z,100279.08
2023-05-02T10:16:37.567Z,100292.37
2023-05-02T10:21:40.861Z,100296.93
2023-05-02T10:26:44.385Z,100301.59
2023-05-02T10:31:49.457Z,100308.77
2023-05-02T10:36:52.636Z,100317.91
2023-05-02T10:41:58.055Z,100317.83
2023-05-02T10:47:01.536Z,100320.86
2023-05-02T10:52:24.582Z,100327.54
2023-05-02T10:57:27.895Z,100329.75
2023-05-02T11:02:32.906Z,100324.30
2023-05-02T11:07:38.071Z,100329.20
2023-05-02T11:12:46.021Z,100331.95
2023-05-02T11:18:04.364Z,100334.14
2023-05-02T11:23:17.038Z,100333.88
2023-05-02T11:28:38.960Z,100337.79
2023-05-02T11:33:42.081Z,100344.14
2023-05-02T11:38:45.168Z,100342.59
2023-05-02T11:43:48.173Z,100348.66
2023-05-02T11:48:51.378Z,100343.45
2023-05-02T11:53:54.594Z,100349.51
2023-05-02T11:58:59.727Z,100358.94
2023-05-02T12:04:07.839Z,100366.88
2023-05-02T12:09:14.558Z,100368.44
2023-05-02T12:14:17.968Z,100376.79
2023-05-02T12:19:27.849Z,100382.82
2023-05-02T12:24:32.288Z,100386.45
2023-05-02T12:29:39.070Z,100388.31
2023-05-02T12:34:42.901Z,100393.33
2023-05-02T12:39:45.992Z,100395.42
2023-05-02T12:44:52.069Z,100398.90
2023-05-02T12:49:59.761Z,100402.63
2023-05-02T12:55:18.670Z,100407.71
2023-05-02T13:00:22.373Z,100409.67
2023-05-02T13:05:26.504Z,100410.06
2023-05-02T13:10:29.641Z,100414.97
2023-05-02T13:15:32.814Z,100420.58
2023-05-02T13:20:35.925Z,100429.59
2023-05-02T13:25:39.340Z,100438.20
2023-05-02T13:30:42.507Z,100455.52
2023-05-02T13:35:45.755Z,100466.51
2023-05-02T13:40:49.481Z,100474.02
2023-05-02T13:45:52.858Z,100478.20
2023-05-02T13:50:56.210Z,100484.48
2023-05-02T13:55:59.615Z,100493.80
2023-05-02T14:01:03.113Z,100506.09
2023-05-02T14:06:06.619Z,100525.25
2023-05-02T14:11:09.766Z,100541.45
2023-05-02T14:16:12.884Z,100548.93
2023-05-02T14:21:17.078Z,100560.39
2023-05-02T14:26:20.700Z,100572.73
2023-05-02T14:31:24.019Z,100582.70
2023-05-02T14:36:27.419Z,100602.41
2023-05-02T14:41:33.500Z,100616.29
2023-05-02T14:46:36.711Z,100623.09
2023-05-02T14:51:40.227Z,100637.10
2023-05-02T14:56:44.155Z,100644.11
2023-05-02T15:01:48.924Z,100653.96
2023-05-02T15:06:54.891Z,100660.39
2023-05-02T15:11:58.595Z,100668.33
2023-05-02T15:17:01.883Z,100684.51
2023-05-02T15:22:05.226Z,100698.11
2023-05-02T15:27:09.873Z,100709.36
2023-05-02T15:32:12.893Z,100714.77
2023-05-02T15:37:15.956Z,100720.55
2023-05-02T15:42:19.219Z,100729.52
2023-05-02T15:47:22.804Z,100736.55
2023-05-02T15:52:26.404Z,100739.44
2023-05-02T15:57:29.814Z,100738.47
2023-05-02T16:02:34.464Z,100747.81
2023-05-02T16:07:38.990Z,100755.04
2023-05-02T16:12:42.120Z,100765.20
2023-05-02T16:17:45.329Z,100772.89
2023-05-02T16:22:48.712Z,100771.34
2023-05-02T16:27:51.851Z,100776.94
2023-05-02T16:32:55.044Z,100785.87
2023-05-02T16:37:58.250Z,100791.41
2023-05-02T16:43:01.772Z,100792.65
2023-05-02T16:48:05.324Z,100796.78
2023-05-02T16:53:08.494Z,100799.08
2023-05-02T16:58:11.479Z,100807.13
2023-05-02T17:03:14.701Z,100820.12
2023-05-02T17:08:17.691Z,100827.08
2023-05-02T17:13:20.797Z,100821.53
2023-05-02T17:18:24.650Z,100823.38
2023-05-02T17:23:30.718Z,100825.71
2023-05-02T17:28:33.909Z,100826.88
2023-05-02T17:33:38.002Z,100828.73
2023-05-02T17:38:42.181Z,100833.88
2023-05-02T17:43:45.481Z,100835.80
2023-05-02T17:48:49.312Z,100844.27
2023-05-02T17:53:53.118Z,100859.42
2023-05-02T17:58:56.652Z,100872.58
2023-05-02T18:04:00.527Z,100875.21
2023-05-02T18:09:04.287Z,100876.89
2023-05-02T18:14:07.485Z,100887.38
2023-05-02T18:19:10.796Z,100900.70
2023-05-02T18:24:14.363Z,100902.97
2023-05-02T18:29:17.526Z,100908.77
2023-05-02T18:34:21.239Z,100911.66
2023-05-02T18:39:24.348Z,100908.52
2023-05-02T18:44:27.759Z,100909.19
2023-05-02T18:49:31.173Z,100914.64
2023-05-02T18:54:34.786Z,100930.77
2023-05-02T18:59:38.001Z,100940.50
2023-05-02T19:04:41.316Z,100947.35
2023-05-02T19:09:44.923Z,100949.30
2023-05-02T19:14:51.824Z,100953.43
2023-05-02T19:19:56.210Z,100961.83
2023-05-02T19:25:00.941Z,100975.31
2023-05-02T19:30:05.418Z,100973.64
2023-05-02T19:35:10.008Z,100980.86
2023-05-02T19:40:13.826Z,100989.74
2023-05-02T19:45:18.860Z,100993.73
2023-05-02T19:50:22.063Z,100991.08
2023-05-02T19:55:25.904Z,100991.19
2023-05-02T20:00:29.502Z,100998.96
2023-05-02T20:05:33.229Z,101011.41
2023-05-02T20:10:36.731Z,101013.60
2023-05-02T20:15:40.662Z,101012.38
2023-05-02T20:20:43.984Z,101011.73
2023-05-02T20:25:47.390Z,101013.48
2023-05-02T20:30:50.895Z,101022.27
2023-05-02T20:35:54.961Z,101026.63
2023-05-02T20:40:58.856Z,101030.98
2023-05-02T20:46:08.604Z,101035.50
2023-05-02T20:51:11.717Z,101035.29
2023-05-02T20:56:15.984Z,101042.03
2023-05-02T21:01:19.166Z,101046.48
2023-05-02T21:06:22.706Z,101050.88
2023-05-02T21:11:26.740Z,101056.33
2023-05-02T21:16:29.991Z,101062.55
2023-05-02T21:21:33.351Z,101063.77
2023-05-02T21:26:36.630Z,101064.97
2023-05-02T21:31:40.271Z,101065.39
2023-05-02T21:36:43.783Z,101066.52
2023-05-02T21:41:47.114Z,101067.23
2023-05-02T21:46:50.968Z,101075.59
2023-05-02T21:51:54.003Z,101078.55
2023-05-02T21:56:57.302Z,101080.89
2023-05-02T22:02:00.678Z,101082.66
2023-05-02T22:07:04.252Z,101091.24
2023-05-02T22:12:07.310Z,101093.80
2023-05-02T22:17:10.556Z,101096.35
2023-05-02T22:22:14.174Z,101095.79
2023-05-02T22:27:17.696Z,101099.48
2023-05-02T22:32:22.844Z,101105.56
2023-05-02T22:37:26.157Z,101104.98
2023-05-02T22:42:29.360Z,101107.71
2023-05-02T22:47:32.591Z,101111.42
2023-05-02T22:52:38.237Z,101113.24
2023-05-02T22:57:41.445Z,101115.92
2023-05-02T23:02:44.976Z,101118.59
2023-05-02T23:07:48.886Z,101118.52
2023-05-02T23:12:51.901Z,101120.42
2023-05-02T23:17:55.177Z,101122.81
2023-05-02T23:22:58.501Z,101125.25
2023-05-02T23:28:01.611Z,101127.46
2023-05-02T23:33:04.662Z,101126.48
2023-05-02T23:38:11.098Z,101127.01
2023-05-02T23:43:14.305Z,101124.25
2023-05-02T23:48:17.311Z,101128.02
2023-05-02T23:53:20.311Z,101126.91
2023-05-02T23:58:23.241Z,101131.94
